createdAt,value
2018-02-08T00:00:44.498Z,87.74
2018-02-08T00:01:50.502Z,87.61
2018-02-08T00:02:56.730Z,87.69
2018-02-08T00:04:02.954Z,87.88
2018-02-08T00:05:08.994Z,88.11
2018-02-08T00:06:15.325Z,88.00
2018-02-08T00:07:23.159Z,88.19
2018-02-08T00:08:29.311Z,88.10
2018-02-08T00:09:36.032Z,87.90
2018-02-08T00:10:42.341Z,87.66
2018-02-08T00:11:48.294Z,87.58
2018-02-08T00:12:54.260Z,87.48
2018-02-08T00:14:00.501Z,87.28
2018-02-08T00:15:06.375Z,87.38
2018-02-08T00:16:12.706Z,87.18
2018-02-08T00:17:18.929Z,87.08
2018-02-08T00:18:25.407Z,87.06
2018-02-08T00:19:32.049Z,87.10
2018-02-08T00:20:38.284Z,87.45
2018-02-08T00:21:44.623Z,87.56
2018-02-08T00:22:51.431Z,87.46
2018-02-08T00:23:57.713Z,87.38
2018-02-08T00:25:03.954Z,87.29
2018-02-08T00:26:10.130Z,87.42
2018-02-08T00:27:16.527Z,87.33
2018-02-08T00:28:24.251Z,87.29
2018-02-08T00:29:31.580Z,87.36
2018-02-08T00:30:37.801Z,87.37
2018-02-08T00:31:44.190Z,87.48
2018-02-08T00:32:50.325Z,87.72
2018-02-08T00:33:56.599Z,87.86
2018-02-08T00:35:03.727Z,87.65
2018-02-08T00:36:10.036Z,87.75
2018-02-08T00:37:17.206Z,87.82
2018-02-08T00:38:24.320Z,87.76
2018-02-08T00:39:31.291Z,87.78
2018-02-08T00:40:37.658Z,88.05
2018-02-08T00:41:43.957Z,88.09
2018-02-08T00:42:50.263Z,88.27
2018-02-08T00:43:56.614Z,88.46
2018-02-08T00:45:02.904Z,88.14
2018-02-08T00:46:09.348Z,88.21
2018-02-08T00:47:15.652Z,88.50
2018-02-08T00:48:21.838Z,88.63
2018-02-08T00:49:28.087Z,88.76
2018-02-08T00:50:34.259Z,88.55
2018-02-08T00:51:40.739Z,88.49
2018-02-08T00:52:46.920Z,88.49
2018-02-08T00:53:53.197Z,88.50
2018-02-08T00:54:59.403Z,88.83
2018-02-08T00:56:05.726Z,88.91
2018-02-08T00:57:12.208Z,88.62
2018-02-08T00:58:18.517Z,88.60
2018-02-08T00:59:25.336Z,88.64
2018-02-08T01:00:37.335Z,88.72
2018-02-08T01:01:44.363Z,88.71
2018-02-08T01:02:50.733Z,88.58
2018-02-08T01:03:57.053Z,88.53
2018-02-08T01:05:03.225Z,88.84
2018-02-08T01:06:09.497Z,88.95
2018-02-08T01:07:15.933Z,88.97
2018-02-08T01:08:22.008Z,88.90
2018-02-08T01:09:28.028Z,88.95
2018-02-08T01:10:34.648Z,88.90
2018-02-08T01:11:40.861Z,88.91
2018-02-08T01:12:47.059Z,88.93
2018-02-08T01:13:53.372Z,88.71
2018-02-08T01:14:59.638Z,88.72
2018-02-08T01:16:05.861Z,88.58
2018-02-08T01:17:12.799Z,88.41
2018-02-08T01:18:20.324Z,88.17
2018-02-08T01:19:26.527Z,88.26
2018-02-08T01:20:33.792Z,88.39
2018-02-08T01:21:40.062Z,88.65
2018-02-08T01:22:46.415Z,88.38
2018-02-08T01:23:52.705Z,88.37
2018-02-08T01:24:59.973Z,88.49
2018-02-08T01:26:06.341Z,88.42
2018-02-08T01:27:13.427Z,88.19
2018-02-08T01:28:20.500Z,88.43
2018-02-08T01:29:28.109Z,88.64
2018-02-08T01:30:34.624Z,88.60
2018-02-08T01:31:40.643Z,88.59
2018-02-08T01:32:46.890Z,88.93
2018-02-08T01:33:53.203Z,88.77
2018-02-08T01:34:59.394Z,88.94
2018-02-08T01:36:05.650Z,88.73
2018-02-08T01:37:11.883Z,88.42
2018-02-08T01:38:19.505Z,88.15
2018-02-08T01:39:26.559Z,88.25
2018-02-08T01:40:33.547Z,88.56
2018-02-08T01:41:39.725Z,88.65
2018-02-08T01:42:45.884Z,88.73
2018-02-08T01:43:52.174Z,88.61
2018-02-08T01:44:58.549Z,88.47
2018-02-08T01:46:05.057Z,88.53
2018-02-08T01:47:12.526Z,88.41
2018-02-08T01:48:19.149Z,88.29
2018-02-08T01:49:36.469Z,88.54
2018-02-08T01:50:42.329Z,88.70
2018-02-08T01:51:48.563Z,88.65
2018-02-08T01:52:54.830Z,88.23
2018-02-08T01:54:01.221Z,88.21
2018-02-08T01:55:07.629Z,88.22
2018-02-08T01:56:13.825Z,88.06
2018-02-08T01:57:20.124Z,88.01
2018-02-08T01:58:26.007Z,87.87
2018-02-08T01:59:32.380Z,88.04
2018-02-08T02:00:38.504Z,87.82
2018-02-08T02:01:43.773Z,87.66
2018-02-08T02:02:49.963Z,87.46
2018-02-08T02:03:55.860Z,87.34
2018-02-08T02:05:03.429Z,87.67
2018-02-08T02:06:10.544Z,87.67
2018-02-08T02:07:16.743Z,87.91
2018-02-08T02:08:22.921Z,88.39
2018-02-08T02:09:28.812Z,88.53
2018-02-08T02:10:35.066Z,88.33
2018-02-08T02:11:42.534Z,88.45
2018-02-08T02:12:48.775Z,88.45
2018-02-08T02:13:54.984Z,88.44
2018-02-08T02:15:01.305Z,88.48
2018-02-08T02:16:07.632Z,88.30
2018-02-08T02:17:14.373Z,88.03
2018-02-08T02:18:20.681Z,88.17
2018-02-08T02:19:26.681Z,88.04
2018-02-08T02:20:33.479Z,87.94
2018-02-08T02:21:39.670Z,87.88
2018-02-08T02:22:45.839Z,87.87
2018-02-08T02:23:51.933Z,88.00
2018-02-08T02:24:58.240Z,87.88
2018-02-08T02:26:08.338Z,87.53
2018-02-08T02:27:14.472Z,87.78
2018-02-08T02:28:20.759Z,88.07
2018-02-08T02:29:31.772Z,88.34
2018-02-08T02:30:38.160Z,88.24
2018-02-08T02:31:44.559Z,88.22
2018-02-08T02:32:50.975Z,88.27
2018-02-08T02:33:58.488Z,87.75
2018-02-08T02:35:05.137Z,87.72
2018-02-08T02:36:11.338Z,87.89
2018-02-08T02:37:17.467Z,88.36
2018-02-08T02:38:23.685Z,88.24
2018-02-08T02:39:30.024Z,88.23
2018-02-08T02:40:36.240Z,88.32
2018-02-08T02:41:43.358Z,88.50
2018-02-08T02:42:49.467Z,88.70
2018-02-08T02:43:55.781Z,88.63
2018-02-08T02:45:02.228Z,88.35
2018-02-08T02:46:08.422Z,88.40
2018-02-08T02:47:14.609Z,88.52
2018-02-08T02:48:21.705Z,88.75
2018-02-08T02:49:28.852Z,88.72
2018-02-08T02:50:34.717Z,88.40
2018-02-08T02:51:40.869Z,88.43
2018-02-08T02:52:47.123Z,88.03
2018-02-08T02:53:53.573Z,88.06
2018-02-08T02:54:59.620Z,87.83
2018-02-08T02:56:05.904Z,88.05
2018-02-08T02:57:12.127Z,87.97
2018-02-08T02:58:18.308Z,88.33
2018-02-08T02:59:24.603Z,88.59
2018-02-08T03:00:30.892Z,88.70
2018-02-08T03:01:37.065Z,88.91
2018-02-08T03:02:43.232Z,88.76
2018-02-08T03:03:49.756Z,88.59
2018-02-08T03:04:56.002Z,88.45
2018-02-08T03:06:02.205Z,88.62
2018-02-08T03:07:08.392Z,88.90
2018-02-08T03:08:14.897Z,89.08
2018-02-08T03:09:21.948Z,89.12
2018-02-08T03:10:27.990Z,89.36
2018-02-08T03:11:33.878Z,89.31
2018-02-08T03:12:40.112Z,89.14
2018-02-08T03:13:46.326Z,89.01
2018-02-08T03:14:53.264Z,88.83
2018-02-08T03:15:59.607Z,88.35
2018-02-08T03:17:05.879Z,88.25
2018-02-08T03:18:12.076Z,88.43
2018-02-08T03:19:18.354Z,88.09
2018-02-08T03:20:24.551Z,88.44
2018-02-08T03:21:30.753Z,88.28
2018-02-08T03:22:37.036Z,88.05
2018-02-08T03:23:43.416Z,88.03
2018-02-08T03:24:49.833Z,87.66
2018-02-08T03:25:56.034Z,87.67
2018-02-08T03:27:02.823Z,87.75
2018-02-08T03:28:09.782Z,88.03
2018-02-08T03:29:15.815Z,88.12
2018-02-08T03:30:22.895Z,88.33
2018-02-08T03:31:30.072Z,88.67
2018-02-08T03:32:36.475Z,88.70
2018-02-08T03:33:42.868Z,88.59
2018-02-08T03:34:49.100Z,88.43
2018-02-08T03:35:55.558Z,88.57
2018-02-08T03:37:01.833Z,88.53
2018-02-08T03:38:07.965Z,88.41
2018-02-08T03:39:14.268Z,88.29
2018-02-08T03:40:20.440Z,88.13
2018-02-08T03:41:26.620Z,87.94
2018-02-08T03:42:32.764Z,87.99
2018-02-08T03:43:39.003Z,88.40
2018-02-08T03:44:45.149Z,88.64
2018-02-08T03:45:57.247Z,88.49
2018-02-08T03:47:03.489Z,88.42
2018-02-08T03:48:09.072Z,88.58
2018-02-08T03:49:15.688Z,88.53
2018-02-08T03:50:21.880Z,88.39
2018-02-08T03:51:27.888Z,88.13
2018-02-08T03:52:34.195Z,87.72
2018-02-08T03:53:40.449Z,87.55
2018-02-08T03:54:46.994Z,87.54
2018-02-08T03:55:54.107Z,87.76
2018-02-08T03:57:00.346Z,88.07
2018-02-08T03:58:06.669Z,88.17
2018-02-08T03:59:12.976Z,88.30
2018-02-08T04:00:19.084Z,88.01
2018-02-08T04:01:25.296Z,88.12
2018-02-08T04:02:31.498Z,88.29
2018-02-08T04:03:38.364Z,88.18
2018-02-08T04:04:44.453Z,88.06
2018-02-08T04:05:50.689Z,87.57
2018-02-08T04:06:56.931Z,87.65
2018-02-08T04:08:08.203Z,87.49
2018-02-08T04:09:14.483Z,87.80
2018-02-08T04:10:20.708Z,87.30
2018-02-08T04:11:26.960Z,87.52
2018-02-08T04:12:33.237Z,87.56
2018-02-08T04:13:39.492Z,87.50
2018-02-08T04:14:45.727Z,87.38
2018-02-08T04:15:52.023Z,87.29
2018-02-08T04:17:00.106Z,87.67
2018-02-08T04:18:07.226Z,87.63
2018-02-08T04:19:13.379Z,87.31
2018-02-08T04:20:19.623Z,87.21
2018-02-08T04:21:26.798Z,87.07
2018-02-08T04:22:33.149Z,87.22
2018-02-08T04:23:39.298Z,87.39
2018-02-08T04:24:45.625Z,87.39
2018-02-08T04:25:51.895Z,87.26
2018-02-08T04:26:59.284Z,87.81
2018-02-08T04:28:06.714Z,87.66
2018-02-08T04:29:13.798Z,87.73
2018-02-08T04:30:20.032Z,87.54
2018-02-08T04:31:26.236Z,87.71
2018-02-08T04:32:32.611Z,87.81
2018-02-08T04:33:39.200Z,87.56
2018-02-08T04:34:45.718Z,87.47
2018-02-08T04:35:51.986Z,87.77
2018-02-08T04:36:58.312Z,88.02
2018-02-08T04:38:04.182Z,88.06
2018-02-08T04:39:21.451Z,88.21
2018-02-08T04:40:39.467Z,88.12
2018-02-08T04:41:56.787Z,88.04
2018-02-08T04:43:13.849Z,87.85
2018-02-08T04:44:30.936Z,87.79
2018-02-08T04:45:48.922Z,87.77
2018-02-08T04:59:03.325Z,88.96
2018-02-08T05:00:09.587Z,88.94
2018-02-08T05:01:15.911Z,88.73
2018-02-08T05:02:21.938Z,88.60
2018-02-08T05:03:28.187Z,88.52
2018-02-08T05:04:34.441Z,88.66
2018-02-08T05:05:40.699Z,88.76
2018-02-08T05:06:46.860Z,89.08
2018-02-08T05:07:53.066Z,88.85
2018-02-08T05:08:59.339Z,88.77
2018-02-08T05:10:05.946Z,89.04
2018-02-08T05:11:12.157Z,89.13
2018-02-08T05:12:18.356Z,89.21
2018-02-08T05:13:24.549Z,89.04
2018-02-08T05:14:30.869Z,88.74
2018-02-08T05:15:37.109Z,88.92
2018-02-08T05:16:43.542Z,88.75
2018-02-08T05:17:49.722Z,88.61
2018-02-08T05:18:55.922Z,88.66
2018-02-08T05:20:02.180Z,88.77
2018-02-08T05:21:08.466Z,88.41
2018-02-08T05:22:14.684Z,88.41
2018-02-08T05:23:20.641Z,88.44
2018-02-08T05:24:26.913Z,86.96
2018-02-08T05:25:37.515Z,86.77
2018-02-08T05:26:43.745Z,87.13
2018-02-08T05:27:49.977Z,87.03
2018-02-08T05:28:56.165Z,86.83
2018-02-08T05:30:02.441Z,87.00
2018-02-08T05:31:08.723Z,86.97
2018-02-08T05:32:15.133Z,86.41
2018-02-08T05:33:22.366Z,86.00
2018-02-08T05:34:28.995Z,86.32
2018-02-08T05:35:35.555Z,86.15
2018-02-08T05:36:41.916Z,85.84
2018-02-08T05:37:48.879Z,85.90
2018-02-08T05:38:56.727Z,85.75
2018-02-08T05:40:03.913Z,85.55
2018-02-08T05:41:10.384Z,85.22
2018-02-08T05:42:17.510Z,84.64
2018-02-08T05:43:24.735Z,84.58
2018-02-08T05:44:31.605Z,84.56
2018-02-08T05:45:38.919Z,84.63
2018-02-08T05:46:45.530Z,84.49
2018-02-08T05:47:52.264Z,84.99
2018-02-08T05:48:58.509Z,85.36
2018-02-08T05:50:04.436Z,85.50
2018-02-08T05:51:10.762Z,86.32
2018-02-08T05:52:16.944Z,86.57
2018-02-08T05:53:23.209Z,86.66
2018-02-08T05:54:29.629Z,86.52
2018-02-08T05:55:39.859Z,86.47
2018-02-08T05:56:46.108Z,86.37
2018-02-08T05:57:52.669Z,86.29
2018-02-08T05:58:59.333Z,86.09
2018-02-08T06:00:05.444Z,85.96
2018-02-08T06:01:11.443Z,85.88
2018-02-08T06:02:17.660Z,85.68
2018-02-08T06:03:23.803Z,85.74
2018-02-08T06:04:30.063Z,85.48
2018-02-08T06:05:36.340Z,85.31
2018-02-08T06:06:42.515Z,85.19
2018-02-08T06:07:49.028Z,85.10
2018-02-08T06:08:55.238Z,85.30
2018-02-08T06:10:01.275Z,85.39
2018-02-08T06:11:08.585Z,85.53
2018-02-08T06:12:16.091Z,85.64
2018-02-08T06:13:22.652Z,85.74
2018-02-08T06:14:29.002Z,86.08
2018-02-08T06:15:41.005Z,86.27
2018-02-08T06:16:47.156Z,86.42
2018-02-08T06:17:53.376Z,86.31
2018-02-08T06:18:59.573Z,86.20
2018-02-08T06:20:06.197Z,86.17
2018-02-08T06:21:12.164Z,85.72
2018-02-08T06:22:18.414Z,85.60
2018-02-08T06:23:24.720Z,85.52
2018-02-08T06:24:30.859Z,85.51
2018-02-08T06:25:37.076Z,85.67
2018-02-08T06:26:43.102Z,85.86
2018-02-08T06:27:49.308Z,86.06
2018-02-08T06:28:55.506Z,85.55
2018-02-08T06:30:02.717Z,85.69
2018-02-08T06:31:09.404Z,85.78
2018-02-08T06:32:15.749Z,86.16
2018-02-08T06:33:21.964Z,86.25
2018-02-08T06:34:28.288Z,85.88
2018-02-08T06:35:34.549Z,85.81
2018-02-08T06:36:41.446Z,85.79
2018-02-08T06:37:47.600Z,85.76
2018-02-08T06:38:54.621Z,85.47
2018-02-08T06:40:00.998Z,85.44
2018-02-08T06:41:06.966Z,85.46
2018-02-08T06:42:13.180Z,85.40
2018-02-08T06:43:19.380Z,85.37
2018-02-08T06:44:25.896Z,85.16
2018-02-08T06:45:32.899Z,84.56
2018-02-08T06:46:39.181Z,84.62
2018-02-08T06:47:46.191Z,84.75
2018-02-08T06:48:52.549Z,85.02
2018-02-08T06:49:59.701Z,85.61
2018-02-08T06:51:05.892Z,85.44
2018-02-08T06:52:12.186Z,85.55
2018-02-08T06:53:28.692Z,85.89
2018-02-08T06:54:34.863Z,86.11
2018-02-08T06:55:41.142Z,86.38
2018-02-08T06:56:47.348Z,86.81
2018-02-08T06:57:53.674Z,86.67
2018-02-08T06:58:59.922Z,86.27
2018-02-08T07:00:05.813Z,85.86
2018-02-08T07:01:12.540Z,85.65
2018-02-08T07:02:18.880Z,85.91
2018-02-08T07:03:24.844Z,85.83
2018-02-08T07:04:31.024Z,85.74
2018-02-08T07:05:37.208Z,86.12
2018-02-08T07:06:44.362Z,86.35
2018-02-08T07:07:50.615Z,86.56
2018-02-08T07:08:56.794Z,86.51
2018-02-08T07:10:02.990Z,86.29
2018-02-08T07:11:09.212Z,86.43
2018-02-08T07:12:15.355Z,86.51
2018-02-08T07:13:21.599Z,86.70
2018-02-08T07:14:27.805Z,86.66
2018-02-08T07:15:34.064Z,86.67
2018-02-08T07:16:40.253Z,86.73
2018-02-08T07:17:46.399Z,86.40
2018-02-08T07:18:52.609Z,86.22
2018-02-08T07:19:59.700Z,86.12
2018-02-08T07:21:05.912Z,86.08
2018-02-08T07:22:12.312Z,86.45
2018-02-08T07:23:18.648Z,86.45
2018-02-08T07:24:25.650Z,86.45
2018-02-08T07:25:32.118Z,86.24
2018-02-08T07:26:38.077Z,85.81
2018-02-08T07:27:44.364Z,85.62
2018-02-08T07:28:50.577Z,85.33
2018-02-08T07:29:56.699Z,84.95
2018-02-08T07:31:02.839Z,85.02
2018-02-08T07:32:08.989Z,85.31
2018-02-08T07:33:15.189Z,85.47
2018-02-08T07:34:21.530Z,85.32
2018-02-08T07:35:28.364Z,84.78
2018-02-08T07:36:34.539Z,84.61
2018-02-08T07:37:40.723Z,84.85
2018-02-08T07:38:46.972Z,84.65
2018-02-08T07:39:53.179Z,84.62
2018-02-08T07:40:59.387Z,84.45
2018-02-08T07:42:05.301Z,84.36
2018-02-08T07:43:11.549Z,84.64
2018-02-08T07:44:17.756Z,84.63
2018-02-08T07:45:24.002Z,84.85
2018-02-08T07:46:30.193Z,84.35
2018-02-08T07:47:36.405Z,84.15
2018-02-08T07:48:42.621Z,84.42
2018-02-08T07:49:49.142Z,84.91
2018-02-08T07:50:55.307Z,85.22
2018-02-08T07:52:01.452Z,85.20
2018-02-08T07:53:07.611Z,85.16
2018-02-08T07:54:13.965Z,85.16
2018-02-08T07:55:20.174Z,84.71
2018-02-08T07:56:26.372Z,84.58
2018-02-08T07:57:32.644Z,84.59
2018-02-08T07:58:38.784Z,85.03
2018-02-08T07:59:45.087Z,85.21
2018-02-08T08:00:51.435Z,84.49
2018-02-08T08:01:57.605Z,84.37
2018-02-08T08:03:03.885Z,84.25
2018-02-08T08:04:10.187Z,84.12
2018-02-08T08:05:16.412Z,83.95
2018-02-08T08:06:22.676Z,84.06
2018-02-08T08:07:28.596Z,83.89
2018-02-08T08:08:34.917Z,83.39
2018-02-08T08:09:40.972Z,82.71
2018-02-08T08:10:47.454Z,83.01
2018-02-08T08:11:56.016Z,83.01
2018-02-08T08:13:02.421Z,83.31
2018-02-08T08:14:09.269Z,82.62
2018-02-08T08:15:15.416Z,82.18
2018-02-08T08:16:21.833Z,82.24
2018-02-08T08:17:28.113Z,82.09
2018-02-08T08:18:34.326Z,82.74
2018-02-08T08:19:40.767Z,82.73
2018-02-08T08:20:46.949Z,82.45
2018-02-08T08:21:54.868Z,82.48
2018-02-08T08:23:02.014Z,82.41
2018-02-08T08:24:08.217Z,82.20
2018-02-08T08:25:14.788Z,81.78
2018-02-08T08:26:21.123Z,81.71
2018-02-08T08:27:27.467Z,81.78
2018-02-08T08:28:33.769Z,82.15
2018-02-08T08:29:39.867Z,82.35
2018-02-08T08:30:46.099Z,82.11
2018-02-08T08:31:52.380Z,82.12
2018-02-08T08:32:58.931Z,82.20
2018-02-08T08:34:05.493Z,82.02
2018-02-08T08:35:12.565Z,82.14
2018-02-08T08:36:19.805Z,82.89
2018-02-08T08:37:26.369Z,83.44
2018-02-08T08:38:32.579Z,83.58
2018-02-08T08:39:38.837Z,83.05
2018-02-08T08:40:45.062Z,82.36
2018-02-08T08:41:51.434Z,82.51
2018-02-08T08:42:57.925Z,82.53
2018-02-08T08:44:04.002Z,81.87
2018-02-08T08:45:10.373Z,80.78
2018-02-08T08:46:16.584Z,81.04
2018-02-08T08:47:22.991Z,81.78
2018-02-08T08:48:30.120Z,81.81
2018-02-08T08:49:37.288Z,81.61
2018-02-08T08:50:43.490Z,81.72
2018-02-08T08:51:58.183Z,82.14
2018-02-08T08:53:04.140Z,82.59
2018-02-08T08:54:11.403Z,82.14
2018-02-08T08:55:18.786Z,82.24
2018-02-08T08:56:25.060Z,82.24
2018-02-08T08:57:31.329Z,81.94
2018-02-08T08:58:37.267Z,82.26
2018-02-08T08:59:43.516Z,82.29
2018-02-08T09:00:51.829Z,82.30
2018-02-08T09:01:58.234Z,81.80
2018-02-08T09:03:06.044Z,81.62
2018-02-08T09:04:12.430Z,81.75
2018-02-08T09:05:18.654Z,81.67
2018-02-08T09:06:24.899Z,82.31
2018-02-08T09:07:31.206Z,82.56
2018-02-08T09:08:37.477Z,82.66
2018-02-08T09:09:45.499Z,82.95
2018-02-08T09:10:52.254Z,82.97
2018-02-08T09:11:58.516Z,82.96
2018-02-08T09:13:04.840Z,82.50
2018-02-08T09:14:11.416Z,82.37
2018-02-08T09:15:17.587Z,82.63
2018-02-08T09:16:24.546Z,82.61
2018-02-08T09:17:30.783Z,82.56
2018-02-08T09:18:37.073Z,82.15
2018-02-08T09:19:43.308Z,82.19
2018-02-08T09:20:50.854Z,82.16
2018-02-08T09:21:58.020Z,82.36
2018-02-08T09:23:04.464Z,82.14
2018-02-08T09:24:11.650Z,81.96
2018-02-08T09:25:18.439Z,82.03
2018-02-08T09:26:25.586Z,81.90
2018-02-08T09:27:34.744Z,81.64
2018-02-08T09:28:41.288Z,82.06
2018-02-08T09:29:47.763Z,81.91
2018-02-08T09:30:54.954Z,81.98
2018-02-08T09:32:01.200Z,81.86
2018-02-08T09:33:07.402Z,81.90
2018-02-08T09:34:13.723Z,81.88
2018-02-08T09:35:19.972Z,81.54
2018-02-08T09:36:26.666Z,81.25
2018-02-08T09:37:33.797Z,81.56
2018-02-08T09:38:41.152Z,81.25
2018-02-08T09:39:47.498Z,80.99
2018-02-08T09:40:54.570Z,81.09
2018-02-08T09:42:06.813Z,81.52
2018-02-08T09:43:13.082Z,81.08
2018-02-08T09:44:19.315Z,81.50
2018-02-08T09:45:25.707Z,82.14
2018-02-08T09:46:32.222Z,82.44
2018-02-08T09:47:39.480Z,82.40
2018-02-08T09:48:46.722Z,81.64
2018-02-08T09:49:53.914Z,81.29
2018-02-08T09:51:00.764Z,81.09
2018-02-08T09:52:07.893Z,81.06
2018-02-08T09:53:15.291Z,81.13
2018-02-08T09:54:21.703Z,81.39
2018-02-08T09:55:27.713Z,81.57
2018-02-08T09:56:34.053Z,81.37
2018-02-08T09:57:40.845Z,81.45
2018-02-08T09:58:47.174Z,80.62
2018-02-08T09:59:54.297Z,79.95
2018-02-08T10:01:00.520Z,80.40
2018-02-08T10:02:06.733Z,80.71
2018-02-08T10:03:12.996Z,80.36
2018-02-08T10:04:20.148Z,79.77
2018-02-08T10:05:26.659Z,79.88
2018-02-08T10:06:32.908Z,79.75
2018-02-08T10:07:39.140Z,79.13
2018-02-08T10:08:45.368Z,79.29
2018-02-08T10:09:51.818Z,79.66
2018-02-08T10:10:58.937Z,80.09
2018-02-08T10:12:05.192Z,79.93
2018-02-08T10:13:11.478Z,80.12
2018-02-08T10:14:17.800Z,79.89
2018-02-08T10:15:29.242Z,79.89
2018-02-08T10:16:35.274Z,79.96
2018-02-08T10:17:41.528Z,80.01
2018-02-08T10:18:48.276Z,80.42
2018-02-08T10:19:54.576Z,80.15
2018-02-08T10:21:00.898Z,79.99
2018-02-08T10:22:07.144Z,80.19
2018-02-08T10:23:13.629Z,80.43
2018-02-08T10:24:20.185Z,80.54
2018-02-08T10:25:26.816Z,80.25
2018-02-08T10:26:33.076Z,79.76
2018-02-08T10:27:39.628Z,79.92
2018-02-08T10:28:46.636Z,79.25
2018-02-08T10:29:53.061Z,78.77
2018-02-08T10:30:59.356Z,78.53
2018-02-08T10:32:05.654Z,78.55
2018-02-08T10:33:11.894Z,78.54
2018-02-08T10:34:18.187Z,78.66
2018-02-08T10:35:24.495Z,78.67
2018-02-08T10:36:31.354Z,78.18
2018-02-08T10:37:37.604Z,78.27
2018-02-08T10:38:43.879Z,78.72
2018-02-08T10:39:50.125Z,79.53
2018-02-08T10:40:57.416Z,79.87
2018-02-08T10:42:03.603Z,79.73
2018-02-08T10:43:10.676Z,79.99
2018-02-08T10:44:17.033Z,80.55
2018-02-08T10:45:23.603Z,80.39
2018-02-08T10:46:29.817Z,80.27
2018-02-08T10:47:36.392Z,80.37
2018-02-08T10:48:42.663Z,80.85
2018-02-08T10:49:49.024Z,80.06
2018-02-08T10:50:55.445Z,79.13
2018-02-08T10:52:01.723Z,79.35
2018-02-08T10:53:07.999Z,79.61
2018-02-08T10:54:14.196Z,80.01
2018-02-08T10:55:20.476Z,79.91
2018-02-08T10:56:26.709Z,80.16
2018-02-08T10:57:33.828Z,80.31
2018-02-08T10:58:40.342Z,80.13
2018-02-08T10:59:48.238Z,80.27
2018-02-08T11:00:56.978Z,80.47
2018-02-08T11:02:03.261Z,79.46
2018-02-08T11:03:09.672Z,79.34
2018-02-08T11:04:16.327Z,79.65
2018-02-08T11:05:22.698Z,79.86
2018-02-08T11:06:29.061Z,79.76
2018-02-08T11:07:36.064Z,79.63
2018-02-08T11:08:43.119Z,79.66
2018-02-08T11:09:52.524Z,80.02
2018-02-08T11:10:58.824Z,80.03
2018-02-08T11:12:06.166Z,79.78
2018-02-08T11:13:15.021Z,79.56
2018-02-08T11:14:21.312Z,79.23
2018-02-08T11:15:28.462Z,79.02
2018-02-08T11:16:34.655Z,78.78
2018-02-08T11:17:40.884Z,78.80
2018-02-08T11:18:47.072Z,78.58
2018-02-08T11:19:53.430Z,78.42
2018-02-08T11:20:59.696Z,78.16
2018-02-08T11:22:05.961Z,77.92
2018-02-08T11:23:14.311Z,78.15
2018-02-08T11:24:20.982Z,77.76
2018-02-08T11:25:27.216Z,77.37
2018-02-08T11:26:33.526Z,77.16
2018-02-08T11:27:42.503Z,77.14
2018-02-08T11:28:49.619Z,77.03
2018-02-08T11:29:56.580Z,76.98
2018-02-08T11:31:02.800Z,76.65
2018-02-08T11:32:09.945Z,76.26
2018-02-08T11:33:17.191Z,75.91
2018-02-08T11:34:23.412Z,75.71
2018-02-08T11:35:29.623Z,75.71
2018-02-08T11:36:36.142Z,75.76
2018-02-08T11:37:43.316Z,75.93
2018-02-08T11:38:49.539Z,75.87
2018-02-08T11:39:55.873Z,76.41
2018-02-08T11:41:02.884Z,76.24
2018-02-08T11:42:09.808Z,76.31
2018-02-08T11:43:16.784Z,76.27
2018-02-08T11:44:23.985Z,76.15
2018-02-08T11:45:30.599Z,75.91
2018-02-08T11:46:36.860Z,75.34
2018-02-08T11:47:43.300Z,75.09
2018-02-08T11:48:49.548Z,74.74
2018-02-08T11:49:58.504Z,74.38
2018-02-08T11:51:05.516Z,73.81
2018-02-08T11:52:11.797Z,73.39
2018-02-08T11:53:18.942Z,72.52
2018-02-08T11:54:24.914Z,72.71
2018-02-08T11:55:30.970Z,72.51
2018-02-08T11:56:38.769Z,73.33
2018-02-08T11:57:45.009Z,72.96
2018-02-08T11:58:51.543Z,73.05
2018-02-08T11:59:57.843Z,73.53
2018-02-08T12:01:04.850Z,73.57
2018-02-08T12:02:11.061Z,73.80
2018-02-08T12:03:17.476Z,73.45
2018-02-08T12:04:24.869Z,74.07
2018-02-08T12:05:31.307Z,74.05
2018-02-08T12:06:37.883Z,73.66
2018-02-08T12:07:44.124Z,73.35
2018-02-08T12:08:50.977Z,72.91
2018-02-08T12:09:58.070Z,72.34
2018-02-08T12:11:04.351Z,71.58
2018-02-08T12:12:10.573Z,71.11
2018-02-08T12:13:18.907Z,70.94
2018-02-08T12:14:26.011Z,70.91
2018-02-08T12:15:32.660Z,71.14
2018-02-08T12:16:41.309Z,71.34
2018-02-08T12:17:49.472Z,71.42
2018-02-08T12:18:56.721Z,71.15
2018-02-08T12:20:04.195Z,71.26
2018-02-08T12:21:12.966Z,71.70
2018-02-08T12:22:22.424Z,71.73
2018-02-08T12:23:30.191Z,71.05
2018-02-08T12:24:40.008Z,69.46
2018-02-08T12:25:47.623Z,69.73
2018-02-08T12:27:00.628Z,68.53
2018-02-08T12:28:09.028Z,68.78
2018-02-08T12:29:22.100Z,68.71
2018-02-08T12:30:29.911Z,68.43
2018-02-08T12:31:38.008Z,68.87
2018-02-08T12:32:48.344Z,69.03
2018-02-08T12:33:55.988Z,69.46
2018-02-08T12:35:03.907Z,69.45
2018-02-08T12:36:11.655Z,69.55
2018-02-08T12:37:19.423Z,69.81
2018-02-08T12:38:28.999Z,69.95
2018-02-08T12:39:38.003Z,69.74
2018-02-08T12:40:45.348Z,70.73
2018-02-08T12:41:55.345Z,70.48
2018-02-08T12:43:02.825Z,70.07
2018-02-08T12:44:10.598Z,69.40
2018-02-08T12:45:18.433Z,67.91
2018-02-08T12:46:25.884Z,67.98
2018-02-08T12:47:33.722Z,67.68
2018-02-08T12:48:41.296Z,67.53
2018-02-08T12:49:51.502Z,67.65
2018-02-08T12:51:01.553Z,67.55
2018-02-08T12:52:08.923Z,67.58
2018-02-08T12:53:15.967Z,68.76
2018-02-08T12:54:23.281Z,68.95
2018-02-08T12:55:30.844Z,68.95
2018-02-08T12:56:38.055Z,68.46
2018-02-08T12:57:44.954Z,68.24
2018-02-08T12:58:52.679Z,67.89
2018-02-08T13:00:00.758Z,68.59
2018-02-08T13:01:08.194Z,69.30
2018-02-08T13:02:15.765Z,69.22
2018-02-08T13:03:22.912Z,69.41
2018-02-08T13:04:33.773Z,69.73
2018-02-08T13:05:41.607Z,69.25
2018-02-08T13:06:48.771Z,69.46
2018-02-08T13:07:58.112Z,69.50
2018-02-08T13:09:05.084Z,69.10
2018-02-08T13:10:12.853Z,69.22
2018-02-08T13:11:21.927Z,69.21
2018-02-08T13:12:29.994Z,69.33
2018-02-08T13:13:38.404Z,69.58
2018-02-08T13:14:45.520Z,69.58
2018-02-08T13:15:52.833Z,69.15
2018-02-08T13:16:59.979Z,69.33
2018-02-08T13:18:07.517Z,69.32
2018-02-08T13:19:14.511Z,68.78
2018-02-08T13:20:21.580Z,69.14
2018-02-08T13:21:30.799Z,68.60
2018-02-08T13:22:37.978Z,68.85
2018-02-08T13:23:45.352Z,69.12
2018-02-08T13:24:52.845Z,68.74
2018-02-08T13:26:00.260Z,68.81
2018-02-08T13:27:08.015Z,68.92
2018-02-08T13:28:14.642Z,68.99
2018-02-08T13:29:20.992Z,68.93
2018-02-08T13:30:28.639Z,69.11
2018-02-08T13:31:35.221Z,69.19
2018-02-08T13:32:43.125Z,69.29
2018-02-08T13:33:49.779Z,68.29
2018-02-08T13:34:56.348Z,67.65
2018-02-08T13:36:02.466Z,68.44
2018-02-08T13:37:08.822Z,68.92
2018-02-08T13:38:15.321Z,69.89
2018-02-08T13:39:27.204Z,70.12
2018-02-08T13:40:52.095Z,69.98
2018-02-08T13:41:58.345Z,70.23
2018-02-08T13:43:04.373Z,70.27
2018-02-08T13:44:11.977Z,70.82
2018-02-08T13:45:18.145Z,71.22
2018-02-08T13:46:24.263Z,71.23
2018-02-08T13:47:31.417Z,71.36
2018-02-08T13:48:37.292Z,71.33
2018-02-08T13:49:43.816Z,71.01
2018-02-08T13:50:51.423Z,70.32
2018-02-08T13:53:38.573Z,70.28
2018-02-08T13:56:41.081Z,69.94
2018-02-08T14:08:30.287Z,71.28
2018-02-08T14:09:36.655Z,71.15
2018-02-08T14:10:43.165Z,70.97
2018-02-08T14:11:49.676Z,70.67
2018-02-08T14:12:56.191Z,71.57
2018-02-08T14:14:02.515Z,71.35
2018-02-08T14:15:09.767Z,71.41
2018-02-08T14:16:16.065Z,70.95
2018-02-08T14:17:22.383Z,71.06
2018-02-08T14:18:29.148Z,70.91
2018-02-08T14:19:35.704Z,71.12
2018-02-08T14:20:41.968Z,71.11
2018-02-08T14:21:48.255Z,71.06
2018-02-08T14:22:54.473Z,70.79
2018-02-08T14:24:00.753Z,70.87
2018-02-08T14:25:08.035Z,71.31
2018-02-08T14:26:13.911Z,71.21
2018-02-08T14:27:21.155Z,71.49
2018-02-08T14:28:27.460Z,71.96
2018-02-08T14:29:34.249Z,72.21
2018-02-08T14:30:40.973Z,72.74
2018-02-08T14:31:48.144Z,73.16
2018-02-08T14:32:56.034Z,73.59
2018-02-08T14:34:02.344Z,73.44
2018-02-08T14:35:08.629Z,73.66
2018-02-08T14:36:14.863Z,73.66
2018-02-08T14:37:21.054Z,74.00
2018-02-08T14:38:28.483Z,73.95
2018-02-08T14:39:34.873Z,74.78
2018-02-08T14:40:41.156Z,75.31
2018-02-08T14:41:47.614Z,75.90
2018-02-08T14:42:53.853Z,76.80
2018-02-08T14:44:00.113Z,77.43
2018-02-08T14:45:06.329Z,77.62
2018-02-08T14:46:12.736Z,78.17
2018-02-08T14:47:19.014Z,78.57